Time;durP1;ratioP1;P1;durP2;ratioP2;P2;SDS_P1;SDS_P2;PMS_P1;PMS_P2;Temp;Humidity;BMP_temperature;BMP_pressure;BME280_temperature;BME280_humidity;BME280_pressure;Samples;Min_cycle;Max_cycle;Signal;HPM_P1;HPM_P2
2020/12/18 00:00:35;;;;;;;15.13;7.75;;;8.70;91.20;;;;;;5039638;28;20096;-75
2020/12/18 00:03:02;;;;;;;16.65;9.30;;;8.70;91.00;;;;;;5021882;28;20025;-75
2020/12/18 00:05:32;;;;;;;13.05;8.70;;;8.70;91.10;;;;;;5023172;28;20036;-76
2020/12/18 00:07:58;;;;;;;23.95;9.13;;;8.60;91.20;;;;;;5040642;28;20021;-76
2020/12/18 00:10:26;;;;;;;15.30;8.75;;;8.60;91.20;;;;;;5023538;28;20121;-75
2020/12/18 00:12:53;;;;;;;17.58;8.38;;;8.50;91.20;;;;;;5040555;28;20029;-76
2020/12/18 00:15:23;;;;;;;13.50;8.18;;;8.50;91.20;;;;;;5008454;28;20034;-76
2020/12/18 00:17:49;;;;;;;15.93;8.55;;;8.50;91.30;;;;;;5006849;28;20033;-76
2020/12/18 00:20:14;;;;;;;13.70;7.82;;;8.50;91.30;;;;;;5041050;28;20457;-76
2020/12/18 00:22:40;;;;;;;14.00;8.82;;;8.40;91.30;;;;;;5005616;28;20085;-76
2020/12/18 00:25:06;;;;;;;18.92;9.00;;;8.40;91.30;;;;;;5041973;28;20504;-76
2020/12/18 00:27:31;;;;;;;14.35;7.97;;;8.40;91.30;;;;;;5023348;28;20040;-76
2020/12/18 00:29:57;;;;;;;12.95;8.23;;;8.30;91.50;;;;;;5022045;28;20025;-76
2020/12/18 00:32:22;;;;;;;14.68;8.38;;;8.30;91.30;;;;;;5005495;28;20053;-75
2020/12/18 00:34:48;;;;;;;15.68;8.20;;;8.30;91.10;;;;;;5005378;28;20032;-76
2020/12/18 00:37:14;;;;;;;13.60;8.20;;;8.30;91.30;;;;;;5007623;28;20079;-76
2020/12/18 00:39:39;;;;;;;13.88;8.60;;;8.30;91.20;;;;;;5005539;28;20400;-76
2020/12/18 00:42:05;;;;;;;12.57;7.65;;;8.30;91.20;;;;;;5007330;28;20500;-76
2020/12/18 00:44:31;;;;;;;16.05;8.07;;;8.30;91.10;;;;;;5008870;28;20032;-76
2020/12/18 00:46:56;;;;;;;17.33;8.40;;;8.20;91.20;;;;;;5044502;28;20037;-76
2020/12/18 00:49:22;;;;;;;16.13;8.60;;;8.20;91.30;;;;;;5026311;28;20032;-75
2020/12/18 00:51:52;;;;;;;17.00;8.52;;;8.10;91.30;;;;;;5007953;28;20512;-76
2020/12/18 00:54:18;;;;;;;16.42;8.57;;;8.10;91.20;;;;;;5010753;28;20031;-76
2020/12/18 00:56:44;;;;;;;14.02;8.32;;;8.10;91.30;;;;;;5025683;28;20559;-76
2020/12/18 00:59:10;;;;;;;16.92;7.63;;;8.10;91.70;;;;;;5027115;28;20037;-76
2020/12/18 01:01:36;;;;;;;12.43;7.55;;;8.00;91.30;;;;;;5026138;28;20075;-76
2020/12/18 01:04:02;;;;;;;16.58;8.43;;;8.00;91.40;;;;;;5028612;28;20040;-76
2020/12/18 01:06:27;;;;;;;16.75;8.13;;;8.00;91.40;;;;;;5015646;28;20024;-75
2020/12/18 01:08:53;;;;;;;15.15;8.38;;;8.00;91.50;;;;;;5030527;28;20065;-76
2020/12/18 01:11:19;;;;;;;15.65;8.32;;;8.00;91.50;;;;;;5047849;28;20057;-76
2020/12/18 01:13:44;;;;;;;16.45;8.02;;;8.00;91.40;;;;;;5043694;28;20037;-76
2020/12/18 01:16:11;;;;;;;13.45;7.90;;;8.10;91.60;;;;;;5026948;28;20028;-76
2020/12/18 01:18:38;;;;;;;19.10;8.70;;;8.10;91.40;;;;;;5028859;28;20027;-75
2020/12/18 01:21:04;;;;;;;16.98;8.13;;;8.10;91.40;;;;;;5033730;28;20070;-76
2020/12/18 01:23:30;;;;;;;14.77;8.27;;;8.10;91.50;;;;;;5030683;28;20098;-76
2020/12/18 01:25:55;;;;;;;14.15;8.43;;;8.10;91.40;;;;;;5044530;28;20564;-76
2020/12/18 01:28:21;;;;;;;13.98;8.52;;;8.10;91.40;;;;;;5033449;28;20049;-76
2020/12/18 01:30:47;;;;;;;18.05;8.20;;;8.10;91.40;;;;;;5046288;28;20021;-75
2020/12/18 01:33:13;;;;;;;14.70;8.43;;;8.10;91.40;;;;;;5058482;28;20374;-76
2020/12/18 01:35:38;;;;;;;15.93;8.00;;;8.20;91.40;;;;;;5013114;28;20025;-76
2020/12/18 01:38:04;;;;;;;17.25;8.63;;;8.10;91.40;;;;;;5014074;28;20044;-76
2020/12/18 01:40:30;;;;;;;11.88;8.00;;;8.10;91.40;;;;;;5015249;28;20037;-76
2020/12/18 01:42:55;;;;;;;17.27;8.52;;;8.10;91.40;;;;;;5047588;28;20022;-76
2020/12/18 01:45:21;;;;;;;13.88;9.20;;;8.20;91.20;;;;;;5046629;28;20104;-76
2020/12/18 01:47:47;;;;;;;25.65;8.77;;;8.20;91.30;;;;;;5051923;28;20048;-76
2020/12/18 01:50:13;;;;;;;20.33;8.38;;;8.20;91.40;;;;;;5030397;28;20021;-75
2020/12/18 01:52:39;;;;;;;15.02;8.45;;;8.10;91.30;;;;;;5025681;28;20026;-76
2020/12/18 01:55:06;;;;;;;19.27;8.82;;;8.10;91.40;;;;;;5030072;28;20025;-76
2020/12/18 01:57:33;;;;;;;17.58;8.63;;;8.10;91.30;;;;;;5028120;28;20491;-76
2020/12/18 02:00:05;;;;;;;15.10;7.95;;;8.10;91.30;;;;;;5011012;28;20156;-76
2020/12/18 02:02:31;;;;;;;18.52;8.32;;;8.10;91.30;;;;;;5025273;28;20033;-76
2020/12/18 02:04:57;;;;;;;10.95;7.85;;;8.20;91.10;;;;;;5034939;28;20025;-76
2020/12/18 02:07:26;;;;;;;18.98;9.05;;;8.10;91.20;;;;;;5017171;28;20025;-76
2020/12/18 02:09:52;;;;;;;14.68;8.40;;;8.20;91.30;;;;;;5042173;28;20030;-76
2020/12/18 02:12:21;;;;;;;14.23;8.13;;;8.20;91.20;;;;;;5026441;28;20021;-76
2020/12/18 02:14:50;;;;;;;17.02;9.27;;;8.10;91.20;;;;;;5044482;28;20121;-76
2020/12/18 02:17:17;;;;;;;16.50;8.60;;;8.10;91.20;;;;;;5029639;28;20030;-76
2020/12/18 02:19:51;;;;;;;12.70;7.72;;;8.20;91.10;;;;;;5010893;28;20033;-76
2020/12/18 02:22:25;;;;;;;15.40;8.95;;;8.10;91.10;;;;;;5033053;28;20051;-75
2020/12/18 02:24:50;;;;;;;16.02;8.88;;;8.10;91.00;;;;;;5027645;28;20037;-76
2020/12/18 02:27:17;;;;;;;15.48;8.65;;;8.10;91.10;;;;;;5029393;28;20075;-76
2020/12/18 02:29:43;;;;;;;16.92;9.35;;;8.10;91.10;;;;;;5026100;28;20480;-76
2020/12/18 02:32:09;;;;;;;16.88;9.50;;;8.20;90.80;;;;;;5026235;28;20037;-76
2020/12/18 02:34:35;;;;;;;14.65;8.20;;;8.20;90.90;;;;;;5043787;28;20040;-76
2020/12/18 02:37:01;;;;;;;14.90;8.02;;;8.20;91.00;;;;;;5031545;28;20025;-75
2020/12/18 02:39:27;;;;;;;18.40;9.20;;;8.20;90.90;;;;;;5045603;28;20024;-76
2020/12/18 02:41:53;;;;;;;15.73;8.65;;;8.10;90.90;;;;;;5045623;28;20473;-75
2020/12/18 02:44:19;;;;;;;19.40;9.50;;;8.10;90.90;;;;;;5026487;28;20057;-76
2020/12/18 02:46:47;;;;;;;16.25;10.18;;;8.10;90.90;;;;;;5025562;28;20389;-76
2020/12/18 02:49:13;;;;;;;17.42;9.45;;;8.10;91.00;;;;;;5024369;28;20071;-76
2020/12/18 02:51:39;;;;;;;16.08;10.10;;;8.10;90.80;;;;;;5031911;28;20436;-75
2020/12/18 02:54:05;;;;;;;19.35;9.65;;;8.10;90.80;;;;;;5023542;28;20060;-75
2020/12/18 02:56:31;;;;;;;20.83;10.63;;;8.10;90.90;;;;;;5021065;28;20099;-75
2020/12/18 02:58:57;;;;;;;14.80;9.60;;;8.10;90.70;;;;;;5010069;28;20034;-75
2020/12/18 03:01:22;;;;;;;20.58;9.85;;;8.10;90.90;;;;;;5026669;28;20032;-75
2020/12/18 03:03:48;;;;;;;15.82;9.82;;;8.10;91.00;;;;;;5011261;28;20431;-75
2020/12/18 03:06:14;;;;;;;17.13;9.02;;;8.10;91.00;;;;;;5027822;28;20066;-75
2020/12/18 03:08:40;;;;;;;18.20;10.25;;;8.10;91.00;;;;;;5010949;28;20028;-74
2020/12/18 03:11:07;;;;;;;15.38;10.65;;;8.10;90.90;;;;;;5044789;28;20032;-75
2020/12/18 03:13:32;;;;;;;17.25;10.38;;;8.10;90.60;;;;;;5008656;28;20036;-74
2020/12/18 03:15:58;;;;;;;17.88;10.13;;;8.10;90.80;;;;;;5029046;28;20029;-74
2020/12/18 03:18:24;;;;;;;17.98;10.68;;;8.10;90.90;;;;;;5032590;28;20055;-74
2020/12/18 03:20:50;;;;;;;14.98;10.18;;;8.10;90.90;;;;;;5048365;28;20051;-74
2020/12/18 03:23:16;;;;;;;13.95;10.55;;;8.10;90.90;;;;;;5025510;28;20029;-75
2020/12/18 03:25:42;;;;;;;19.65;10.10;;;8.00;90.90;;;;;;5005478;28;20029;-74
2020/12/18 03:28:09;;;;;;;12.82;9.30;;;8.10;91.00;;;;;;5011519;28;20447;-75
2020/12/18 03:30:35;;;;;;;17.30;10.52;;;8.10;91.00;;;;;;5023362;28;20029;-75
2020/12/18 03:33:00;;;;;;;19.02;10.23;;;8.10;90.90;;;;;;5011032;28;20020;-75
2020/12/18 03:35:27;;;;;;;16.88;10.20;;;8.10;90.90;;;;;;5040340;28;20033;-75
2020/12/18 03:37:53;;;;;;;19.70;10.68;;;8.10;90.90;;;;;;5006938;28;20021;-75
2020/12/18 03:40:20;;;;;;;18.90;9.88;;;8.10;90.70;;;;;;5029085;28;20041;-75
2020/12/18 03:42:46;;;;;;;24.02;11.05;;;8.10;90.80;;;;;;5022765;28;20566;-75
2020/12/18 03:45:12;;;;;;;18.50;10.68;;;8.10;90.80;;;;;;5026364;28;20057;-75
2020/12/18 03:47:37;;;;;;;18.13;9.85;;;8.00;90.80;;;;;;5027940;28;20075;-75
2020/12/18 03:50:06;;;;;;;19.20;11.18;;;8.10;90.90;;;;;;5023554;28;20025;-75
2020/12/18 03:52:32;;;;;;;19.52;10.48;;;8.10;90.70;;;;;;5023437;28;21014;-75
2020/12/18 03:54:57;;;;;;;17.00;10.50;;;8.10;90.80;;;;;;5015034;28;20025;-75
2020/12/18 03:57:23;;;;;;;18.30;10.18;;;8.10;90.90;;;;;;5043186;28;20032;-75
2020/12/18 03:59:49;;;;;;;16.75;10.10;;;8.10;90.80;;;;;;5008345;28;20029;-76
2020/12/18 04:02:15;;;;;;;18.27;10.35;;;8.10;90.70;;;;;;5025636;28;20021;-75
2020/12/18 04:04:40;;;;;;;16.80;10.95;;;8.10;90.80;;;;;;5012407;28;20033;-75
2020/12/18 04:07:07;;;;;;;20.55;10.38;;;8.10;90.70;;;;;;5041693;28;20408;-75
2020/12/18 04:09:32;;;;;;;19.13;10.60;;;8.10;90.80;;;;;;5032842;28;20029;-75
2020/12/18 04:11:59;;;;;;;18.73;10.52;;;8.00;90.70;;;;;;5008361;28;20071;-75
2020/12/18 04:14:24;;;;;;;19.63;11.15;;;8.00;90.70;;;;;;5028885;28;20028;-74
2020/12/18 04:16:50;;;;;;;16.17;10.25;;;8.00;90.60;;;;;;5010125;28;20052;-74
2020/12/18 04:19:16;;;;;;;21.27;10.80;;;8.00;90.70;;;;;;5027564;28;20025;-75
2020/12/18 04:21:41;;;;;;;16.30;10.65;;;8.00;90.70;;;;;;5027930;28;20063;-75
2020/12/18 04:24:07;;;;;;;18.15;10.55;;;8.00;90.70;;;;;;5034160;28;20082;-75
2020/12/18 04:26:33;;;;;;;20.63;11.77;;;8.00;90.70;;;;;;5042613;28;20073;-75
2020/12/18 04:28:58;;;;;;;20.65;12.23;;;8.00;90.70;;;;;;5032880;28;20112;-75
2020/12/18 04:31:25;;;;;;;22.60;11.45;;;8.00;90.70;;;;;;5047620;28;20021;-75
2020/12/18 04:33:50;;;;;;;17.88;10.68;;;8.00;90.70;;;;;;5050212;28;20025;-76
2020/12/18 04:36:16;;;;;;;16.35;10.50;;;8.00;90.70;;;;;;5036440;28;20313;-76
2020/12/18 04:38:42;;;;;;;20.45;11.50;;;8.00;90.60;;;;;;5011863;28;20116;-75
2020/12/18 04:41:08;;;;;;;17.77;10.55;;;8.00;90.60;;;;;;5032680;28;20017;-75
2020/12/18 04:43:34;;;;;;;18.67;10.52;;;8.00;90.70;;;;;;5027028;28;20030;-76
2020/12/18 04:46:00;;;;;;;13.70;9.93;;;8.00;90.70;;;;;;5016639;28;20037;-76
2020/12/18 04:48:27;;;;;;;17.02;10.75;;;8.00;90.70;;;;;;5046071;28;20029;-75
2020/12/18 04:50:58;;;;;;;17.70;10.95;;;7.90;90.60;;;;;;5028201;28;20032;-75
2020/12/18 04:53:28;;;;;;;17.88;10.68;;;7.90;90.70;;;;;;5029755;28;20021;-75
2020/12/18 04:55:55;;;;;;;18.92;11.07;;;7.90;90.70;;;;;;5024834;28;20037;-76
2020/12/18 04:58:24;;;;;;;18.60;11.05;;;8.00;90.50;;;;;;5048336;28;20039;-74
2020/12/18 05:00:56;;;;;;;27.25;11.80;;;8.00;90.50;;;;;;5021449;28;20037;-75
2020/12/18 05:03:22;;;;;;;19.00;10.13;;;7.90;90.60;;;;;;5031068;28;20016;-75
2020/12/18 05:05:48;;;;;;;18.05;10.75;;;7.90;90.60;;;;;;5027217;28;20028;-75
2020/12/18 05:08:14;;;;;;;20.67;11.02;;;7.90;90.60;;;;;;5014595;28;20036;-75
2020/12/18 05:10:39;;;;;;;20.95;11.18;;;7.90;90.70;;;;;;5011089;28;20033;-75
2020/12/18 05:13:05;;;;;;;18.15;10.68;;;7.90;90.60;;;;;;5028849;28;20043;-75
2020/12/18 05:15:33;;;;;;;20.23;12.07;;;7.90;90.70;;;;;;5050459;28;20032;-76
2020/12/18 05:17:59;;;;;;;20.90;11.23;;;7.90;90.70;;;;;;5032856;28;20021;-75
2020/12/18 05:20:26;;;;;;;19.98;11.55;;;7.90;90.70;;;;;;5028231;28;20031;-75
2020/12/18 05:22:53;;;;;;;19.83;10.45;;;7.90;90.80;;;;;;5025654;28;20060;-76
2020/12/18 05:25:19;;;;;;;19.30;11.13;;;8.00;90.60;;;;;;5014645;28;20033;-75
2020/12/18 05:27:44;;;;;;;19.35;10.43;;;8.00;90.50;;;;;;5029475;28;20485;-75
2020/12/18 05:30:10;;;;;;;24.10;11.57;;;8.00;90.60;;;;;;5030280;28;20033;-76
2020/12/18 05:32:37;;;;;;;16.88;10.93;;;8.00;90.60;;;;;;5043784;28;20408;-75
2020/12/18 05:35:04;;;;;;;19.77;10.85;;;8.10;90.40;;;;;;5025466;28;20029;-75
2020/12/18 05:37:38;;;;;;;21.40;10.23;;;8.00;90.40;;;;;;5031481;28;20401;-76
2020/12/18 05:40:07;;;;;;;18.65;10.63;;;8.00;90.50;;;;;;5049488;28;20029;-75
2020/12/18 05:42:47;;;;;;;19.95;10.63;;;8.00;90.50;;;;;;5027377;28;20547;-76
2020/12/18 05:45:18;;;;;;;16.25;10.80;;;7.90;90.50;;;;;;5025188;28;20024;-76
2020/12/18 05:47:55;;;;;;;18.10;10.43;;;8.00;90.40;;;;;;5014348;28;20068;-75
2020/12/18 05:50:21;;;;;;;20.50;9.88;;;8.00;90.50;;;;;;5033001;28;20420;-76
2020/12/18 05:52:57;;;;;;;17.95;9.90;;;7.90;90.50;;;;;;5049645;28;20094;-75
2020/12/18 05:55:23;;;;;;;19.08;9.82;;;7.90;90.50;;;;;;5042719;28;20037;-75
2020/12/18 05:57:49;;;;;;;16.95;10.88;;;7.90;90.50;;;;;;5009674;28;20493;-75
2020/12/18 06:00:14;;;;;;;19.08;10.00;;;7.90;90.50;;;;;;5042592;28;20025;-75
2020/12/18 06:02:44;;;;;;;16.85;10.18;;;7.90;90.60;;;;;;5022417;28;20037;-75
2020/12/18 06:05:10;;;;;;;21.92;11.40;;;7.90;90.60;;;;;;5026453;28;20036;-76
2020/12/18 06:07:37;;;;;;;19.33;10.82;;;7.80;90.60;;;;;;5047859;28;20572;-76
2020/12/18 06:10:04;;;;;;;17.25;10.45;;;7.80;90.90;;;;;;5025576;28;20120;-75
2020/12/18 06:12:30;;;;;;;20.98;11.07;;;7.80;90.70;;;;;;5028373;28;20037;-75
2020/12/18 06:14:56;;;;;;;18.08;10.98;;;7.80;90.80;;;;;;5026990;28;20079;-75
2020/12/18 06:17:35;;;;;;;17.02;10.15;;;7.70;90.60;;;;;;5023954;28;20064;-74
2020/12/18 06:20:03;;;;;;;19.13;11.27;;;7.80;90.70;;;;;;5026050;28;20036;-75
2020/12/18 06:22:28;;;;;;;21.80;10.27;;;7.70;90.80;;;;;;5032410;28;20045;-75
2020/12/18 06:24:54;;;;;;;19.52;11.63;;;7.70;90.70;;;;;;5028910;28;20059;-75
2020/12/18 06:27:20;;;;;;;18.27;11.27;;;7.80;90.60;;;;;;5025673;28;20116;-75
2020/12/18 06:29:47;;;;;;;17.45;10.95;;;7.70;90.70;;;;;;5044953;28;20032;-74
2020/12/18 06:32:27;;;;;;;25.83;12.60;;;7.70;90.70;;;;;;5024808;28;20120;-74
2020/12/18 06:34:54;;;;;;;23.23;12.20;;;7.70;90.90;;;;;;5026804;28;20025;-74
2020/12/18 06:37:30;;;;;;;23.42;11.75;;;7.70;90.90;;;;;;5010912;28;20021;-75
2020/12/18 06:39:57;;;;;;;21.77;12.65;;;7.70;90.80;;;;;;5045410;28;20566;-75
2020/12/18 06:42:23;;;;;;;23.10;13.80;;;7.70;91.00;;;;;;5025125;28;20028;-74
2020/12/18 06:44:53;;;;;;;24.27;13.00;;;7.70;90.90;;;;;;5007230;28;20378;-74
2020/12/18 06:47:24;;;;;;;24.50;12.20;;;7.60;90.90;;;;;;5026926;28;20087;-75
2020/12/18 06:49:57;;;;;;;26.50;12.77;;;7.60;91.00;;;;;;5055908;28;20485;-74
2020/12/18 06:52:50;;;;;;;25.52;13.80;;;7.60;91.10;;;;;;5012689;28;20024;-73
2020/12/18 06:55:25;;;;;;;22.70;13.45;;;7.50;91.10;;;;;;5048925;28;20527;-74
2020/12/18 06:58:08;;;;;;;23.15;12.73;;;7.50;91.10;;;;;;5025999;28;20048;-74
2020/12/18 07:00:43;;;;;;;23.55;13.15;;;7.60;91.10;;;;;;5032602;28;20045;-74
2020/12/18 07:03:10;;;;;;;29.42;13.05;;;7.60;91.10;;;;;;5014509;28;20017;-73
2020/12/18 07:05:42;;;;;;;19.95;12.50;;;7.50;91.10;;;;;;5014564;28;20088;-74
2020/12/18 07:08:15;;;;;;;20.65;12.23;;;7.50;91.20;;;;;;5035109;28;20032;-74
2020/12/18 07:10:47;;;;;;;23.52;12.20;;;7.50;91.30;;;;;;5027156;28;20033;-73
2020/12/18 07:13:20;;;;;;;25.67;12.80;;;7.50;91.30;;;;;;5052109;28;20483;-76
2020/12/18 07:15:49;;;;;;;21.67;11.73;;;7.50;91.30;;;;;;5026523;28;20549;-73
2020/12/18 07:18:27;;;;;;;21.48;12.05;;;7.50;91.40;;;;;;5030742;28;20036;-73
2020/12/18 07:20:55;;;;;;;24.38;12.52;;;7.50;91.30;;;;;;5029779;28;20032;-74
2020/12/18 07:23:23;;;;;;;22.05;12.00;;;7.50;91.20;;;;;;5027944;28;20020;-74
2020/12/18 07:25:49;;;;;;;21.38;11.15;;;7.50;91.30;;;;;;5038698;28;20063;-74
2020/12/18 07:28:16;;;;;;;23.02;11.40;;;7.50;91.30;;;;;;5051420;28;20135;-74
2020/12/18 07:30:44;;;;;;;23.27;11.80;;;7.40;91.30;;;;;;5029061;28;20032;-74
2020/12/18 07:33:13;;;;;;;23.52;12.15;;;7.50;91.50;;;;;;5027778;28;20037;-73
2020/12/18 07:35:44;;;;;;;21.25;11.35;;;7.50;91.40;;;;;;5013552;28;20024;-74
2020/12/18 07:38:17;;;;;;;21.85;11.18;;;7.50;91.40;;;;;;5025629;28;20040;-73
2020/12/18 07:40:44;;;;;;;18.77;10.80;;;7.50;91.30;;;;;;5027185;28;20083;-73
2020/12/18 07:43:13;;;;;;;21.70;10.57;;;7.50;91.40;;;;;;5027420;28;20029;-73
2020/12/18 07:45:43;;;;;;;22.45;9.98;;;7.50;91.40;;;;;;5013115;28;20052;-74
2020/12/18 07:48:11;;;;;;;21.85;10.15;;;7.50;91.40;;;;;;5028121;28;20036;-73
2020/12/18 07:50:37;;;;;;;18.75;9.50;;;7.50;91.30;;;;;;5047657;28;20037;-73
2020/12/18 07:53:10;;;;;;;21.85;10.63;;;7.40;91.40;;;;;;5027556;28;20029;-73
2020/12/18 07:55:35;;;;;;;24.23;10.88;;;7.40;91.50;;;;;;5044036;28;20027;-73
2020/12/18 07:58:01;;;;;;;17.17;9.48;;;7.60;91.50;;;;;;5021563;28;20545;-73
2020/12/18 08:00:27;;;;;;;20.48;8.90;;;7.60;91.20;;;;;;5046053;28;20017;-73
2020/12/18 08:02:53;;;;;;;15.57;8.13;;;7.60;91.10;;;;;;5028969;28;20021;-73
2020/12/18 08:05:21;;;;;;;19.85;8.32;;;7.60;91.20;;;;;;5032598;28;20029;-73
2020/12/18 08:07:49;;;;;;;17.58;8.40;;;7.60;91.10;;;;;;5024733;28;20217;-73
2020/12/18 08:10:17;;;;;;;15.52;8.50;;;7.60;91.30;;;;;;5006230;28;20021;-73
2020/12/18 08:12:47;;;;;;;18.13;8.63;;;7.60;91.20;;;;;;5022335;28;20348;-73
2020/12/18 08:15:13;;;;;;;16.20;8.27;;;7.70;91.10;;;;;;5023363;28;20033;-72
2020/12/18 08:17:41;;;;;;;16.13;7.30;;;7.70;91.10;;;;;;5020605;28;20025;-72
2020/12/18 08:20:11;;;;;;;14.82;7.28;;;7.60;91.00;;;;;;5036965;28;20090;-72
2020/12/18 08:22:44;;;;;;;14.02;8.30;;;7.60;91.20;;;;;;5030912;28;20021;-72
2020/12/18 08:25:12;;;;;;;12.65;7.20;;;7.60;91.20;;;;;;5009227;28;20036;-72
2020/12/18 08:27:48;;;;;;;15.45;6.60;;;7.60;91.20;;;;;;5036356;28;20028;-72
2020/12/18 08:30:16;;;;;;;17.17;6.97;;;7.70;91.00;;;;;;5038506;28;20079;-73
2020/12/18 08:32:47;;;;;;;12.63;6.82;;;7.70;91.10;;;;;;5019225;28;20091;-73
2020/12/18 08:35:19;;;;;;;22.30;8.30;;;7.70;91.20;;;;;;5035518;28;20033;-73
2020/12/18 08:37:44;;;;;;;16.50;7.90;;;7.60;91.20;;;;;;5040365;28;20286;-72
2020/12/18 08:40:18;;;;;;;19.30;8.25;;;7.60;91.30;;;;;;5026579;28;20097;-73
2020/12/18 08:42:43;;;;;;;12.90;7.05;;;7.60;91.30;;;;;;5019244;28;20025;-73
2020/12/18 08:45:09;;;;;;;14.40;7.25;;;7.60;91.20;;;;;;5017681;28;20479;-73
2020/12/18 08:47:35;;;;;;;13.35;7.65;;;7.60;91.10;;;;;;5019503;28;20041;-72
2020/12/18 08:50:00;;;;;;;17.58;8.52;;;7.70;91.10;;;;;;5001288;28;20040;-73
2020/12/18 08:52:30;;;;;;;15.20;8.38;;;7.60;91.00;;;;;;5036720;28;20704;-72
2020/12/18 08:55:01;;;;;;;17.73;7.97;;;7.60;91.00;;;;;;5019611;28;20059;-73
2020/12/18 08:57:29;;;;;;;16.65;7.88;;;7.60;90.90;;;;;;5019847;28;20049;-74
2020/12/18 09:00:10;;;;;;;18.85;7.65;;;7.50;91.10;;;;;;5020425;28;20041;-72
2020/12/18 09:02:57;;;;;;;18.80;7.80;;;7.50;91.10;;;;;;5041204;28;20083;-73
2020/12/18 09:05:23;;;;;;;15.43;7.18;;;7.50;91.10;;;;;;5026964;28;20033;-73
2020/12/18 09:08:03;;;;;;;18.38;7.32;;;7.50;90.80;;;;;;5024836;28;20043;-73
2020/12/18 09:10:33;;;;;;;11.75;6.60;;;7.50;91.10;;;;;;5026216;28;20046;-73
2020/12/18 09:13:19;;;;;;;18.55;7.38;;;7.60;91.20;;;;;;5023103;28;20589;-73
2020/12/18 09:16:05;;;;;;;15.07;6.38;;;7.60;91.00;;;;;;5018970;28;20130;-74
2020/12/18 09:18:32;;;;;;;15.00;7.07;;;7.50;91.00;;;;;;5035327;28;20041;-73
2020/12/18 09:21:15;;;;;;;11.52;6.28;;;7.50;91.00;;;;;;5023521;28;20079;-73
2020/12/18 09:23:43;;;;;;;12.32;6.50;;;7.50;91.10;;;;;;5022464;28;20033;-74
2020/12/18 09:26:09;;;;;;;14.52;6.15;;;7.50;91.10;;;;;;5044154;28;20037;-74
2020/12/18 09:28:41;;;;;;;13.32;5.95;;;7.60;91.00;;;;;;5015596;28;20032;-74
2020/12/18 09:31:08;;;;;;;12.23;6.50;;;7.60;91.10;;;;;;5036038;28;20163;-74
2020/12/18 09:33:36;;;;;;;11.40;5.95;;;7.60;91.10;;;;;;5034638;28;20515;-77
2020/12/18 09:36:21;;;;;;;16.70;6.63;;;7.60;91.00;;;;;;5011455;28;20058;-75
2020/12/18 09:38:51;;;;;;;11.98;5.75;;;7.70;91.10;;;;;;5031143;28;20032;-76
2020/12/18 09:41:19;;;;;;;9.63;5.75;;;7.70;91.00;;;;;;5040315;28;20059;-76
2020/12/18 09:43:46;;;;;;;12.82;5.90;;;7.70;91.00;;;;;;5034192;28;20036;-75
2020/12/18 09:46:12;;;;;;;11.90;5.90;;;7.70;91.00;;;;;;5046803;28;20082;-75
2020/12/18 09:48:44;;;;;;;10.73;5.57;;;7.80;91.00;;;;;;5024609;28;23242;-75
2020/12/18 09:51:10;;;;;;;12.10;5.80;;;7.80;90.80;;;;;;5012421;28;20025;-76
2020/12/18 09:53:36;;;;;;;13.65;5.70;;;7.90;90.60;;;;;;5043533;28;20017;-75
2020/12/18 09:56:02;;;;;;;17.95;6.68;;;7.90;90.70;;;;;;5036924;28;20079;-75
2020/12/18 09:58:28;;;;;;;13.15;5.78;;;7.90;90.60;;;;;;5025927;28;20025;-76
2020/12/18 10:00:54;;;;;;;13.60;5.57;;;7.90;90.60;;;;;;5041518;28;20029;-75
2020/12/18 10:03:19;;;;;;;11.88;5.60;;;7.90;90.50;;;;;;5013577;28;20431;-75
2020/12/18 10:05:47;;;;;;;9.30;4.88;;;7.90;90.60;;;;;;5031640;28;20439;-75
2020/12/18 10:08:12;;;;;;;11.15;5.20;;;7.90;90.60;;;;;;5022374;28;20040;-75
2020/12/18 10:10:39;;;;;;;11.80;5.35;;;7.90;90.50;;;;;;5027465;28;20140;-75
2020/12/18 10:13:04;;;;;;;10.57;5.30;;;7.90;90.60;;;;;;5025612;28;20033;-75
2020/12/18 10:15:30;;;;;;;10.45;5.65;;;7.90;90.60;;;;;;5019677;28;20029;-74
2020/12/18 10:17:56;;;;;;;12.38;5.00;;;7.90;90.50;;;;;;5010038;28;20025;-74
2020/12/18 10:20:22;;;;;;;11.13;4.55;;;8.00;90.30;;;;;;5007065;28;20025;-75
2020/12/18 10:22:48;;;;;;;13.50;5.35;;;8.00;90.20;;;;;;5023045;28;20029;-75
2020/12/18 10:25:14;;;;;;;9.82;4.00;;;8.10;90.20;;;;;;5048739;28;20044;-74
2020/12/18 10:27:42;;;;;;;15.18;4.78;;;8.10;90.10;;;;;;5025756;28;20094;-74
2020/12/18 10:30:08;;;;;;;15.18;4.40;;;8.10;89.80;;;;;;5023672;28;20044;-75
2020/12/18 10:32:34;;;;;;;9.82;4.10;;;8.20;89.50;;;;;;5030293;28;20025;-74
2020/12/18 10:35:01;;;;;;;9.60;4.13;;;8.20;89.70;;;;;;5032724;28;20059;-75
2020/12/18 10:37:29;;;;;;;8.98;4.03;;;8.20;89.70;;;;;;5047825;28;20384;-74
2020/12/18 10:39:55;;;;;;;10.05;4.40;;;8.20;89.80;;;;;;5038345;28;20107;-75
2020/12/18 10:42:21;;;;;;;9.82;4.30;;;8.30;89.40;;;;;;5022010;28;20136;-75
2020/12/18 10:44:47;;;;;;;10.40;4.22;;;8.30;89.60;;;;;;5040550;28;20013;-75
2020/12/18 10:47:13;;;;;;;9.20;4.38;;;8.40;89.20;;;;;;5029714;28;20484;-75
2020/12/18 10:49:39;;;;;;;11.45;4.88;;;8.40;88.80;;;;;;5030948;28;20071;-75
2020/12/18 10:52:05;;;;;;;6.70;3.90;;;8.40;88.80;;;;;;5042681;28;20027;-75
2020/12/18 10:54:31;;;;;;;9.88;4.20;;;8.40;89.10;;;;;;5016737;28;20029;-74
2020/12/18 10:56:57;;;;;;;10.45;4.30;;;8.30;89.00;;;;;;5041211;28;20039;-75
2020/12/18 10:59:26;;;;;;;7.53;4.55;;;8.30;89.20;;;;;;5024612;28;20504;-75
2020/12/18 11:01:56;;;;;;;12.63;4.75;;;8.30;89.10;;;;;;5022973;28;20103;-75
2020/12/18 11:04:22;;;;;;;10.50;4.87;;;8.40;89.10;;;;;;5009875;28;20048;-75
2020/12/18 11:06:48;;;;;;;17.60;4.95;;;8.40;89.00;;;;;;5039939;28;20672;-75
2020/12/18 11:09:16;;;;;;;9.55;4.90;;;8.50;88.80;;;;;;5007857;28;20072;-75
2020/12/18 11:11:42;;;;;;;7.55;3.90;;;8.50;88.70;;;;;;5024855;28;20055;-75
2020/12/18 11:14:08;;;;;;;12.55;4.43;;;8.60;88.30;;;;;;5023925;28;20035;-76
2020/12/18 11:16:35;;;;;;;6.85;3.80;;;8.60;88.30;;;;;;5024338;28;20033;-76
2020/12/18 11:19:01;;;;;;;9.45;4.05;;;8.60;88.10;;;;;;5005828;28;20025;-75
2020/12/18 11:21:29;;;;;;;10.05;3.80;;;8.70;87.70;;;;;;5022961;28;20080;-75
2020/12/18 11:23:54;;;;;;;10.48;3.70;;;8.80;87.60;;;;;;5006135;28;20056;-75
2020/12/18 11:26:20;;;;;;;10.88;3.85;;;8.70;87.70;;;;;;5007095;28;20076;-75
2020/12/18 11:28:46;;;;;;;9.10;3.42;;;8.70;87.90;;;;;;5028393;28;20109;-75
2020/12/18 11:31:11;;;;;;;8.50;4.18;;;8.80;87.40;;;;;;5005321;28;20037;-75
2020/12/18 11:33:37;;;;;;;8.23;3.70;;;8.80;87.60;;;;;;5039280;28;20481;-75
2020/12/18 11:36:03;;;;;;;10.38;3.72;;;8.80;87.70;;;;;;5008592;28;20025;-74
2020/12/18 11:38:29;;;;;;;10.55;3.85;;;8.80;87.80;;;;;;5028397;28;20600;-74
2020/12/18 11:40:54;;;;;;;12.30;4.07;;;8.90;87.70;;;;;;5017302;28;20430;-75
2020/12/18 11:43:20;;;;;;;13.57;3.15;;;8.90;87.40;;;;;;5034220;28;20025;-75
2020/12/18 11:45:46;;;;;;;10.25;4.32;;;9.00;86.80;;;;;;5025979;28;20032;-75
2020/12/18 11:48:12;;;;;;;7.45;2.90;;;9.00;86.90;;;;;;5026084;28;20156;-74
2020/12/18 11:50:42;;;;;;;9.60;3.20;;;9.00;87.00;;;;;;5025801;28;20031;-75
2020/12/18 11:56:01;;;;;;;16.83;3.35;;;9.10;86.50;;;;;;5016217;28;20045;-76
2020/12/18 11:58:26;;;;;;;5.75;2.55;;;9.10;86.80;;;;;;5007546;28;20090;-77
2020/12/18 12:00:53;;;;;;;9.48;3.00;;;9.00;87.10;;;;;;5030233;28;20431;-73
2020/12/18 12:03:19;;;;;;;8.02;2.80;;;9.00;87.20;;;;;;5027632;28;20036;-75
2020/12/18 12:05:44;;;;;;;10.38;3.13;;;9.00;87.00;;;;;;5027573;28;20032;-77
2020/12/18 12:08:10;;;;;;;10.60;3.35;;;9.00;87.00;;;;;;5022033;28;20496;-77
2020/12/18 12:10:36;;;;;;;6.68;2.90;;;9.00;87.10;;;;;;5028202;28;20026;-76
2020/12/18 12:13:02;;;;;;;9.30;2.63;;;9.10;86.50;;;;;;5032504;28;20090;-76
2020/12/18 12:15:27;;;;;;;9.02;2.63;;;9.20;86.20;;;;;;5039635;28;20387;-76
2020/12/18 12:17:53;;;;;;;9.23;2.80;;;9.20;86.10;;;;;;5020918;28;20036;-75
2020/12/18 12:20:19;;;;;;;4.45;2.70;;;9.20;85.90;;;;;;5037179;28;20056;-75
2020/12/18 12:22:45;;;;;;;6.38;2.65;;;9.20;86.00;;;;;;5023397;28;20025;-76
2020/12/18 12:25:11;;;;;;;8.55;2.60;;;9.20;85.80;;;;;;5032870;28;20488;-73
2020/12/18 12:27:36;;;;;;;5.47;2.40;;;9.20;86.00;;;;;;5040016;28;20338;-74
2020/12/18 12:30:03;;;;;;;5.40;3.10;;;9.40;84.90;;;;;;5025200;28;20450;-73
2020/12/18 12:32:29;;;;;;;6.25;2.42;;;9.40;84.50;;;;;;5032593;28;20027;-74
2020/12/18 12:34:54;;;;;;;10.45;3.10;;;9.40;84.60;;;;;;5011624;28;20020;-74
2020/12/18 12:37:20;;;;;;;8.55;3.40;;;9.30;84.70;;;;;;5007251;28;20033;-74
2020/12/18 12:39:48;;;;;;;5.05;2.40;;;9.30;84.60;;;;;;5042028;28;20033;-75
2020/12/18 12:42:14;;;;;;;7.53;3.33;;;9.30;85.00;;;;;;5026065;28;20028;-75
2020/12/18 12:44:40;;;;;;;6.50;2.30;;;9.30;85.00;;;;;;5027992;28;20112;-74
2020/12/18 12:47:06;;;;;;;8.15;2.80;;;9.30;85.00;;;;;;5025147;28;20026;-75
2020/12/18 12:49:32;;;;;;;11.07;2.58;;;9.30;84.30;;;;;;5039383;28;20017;-75